Time;durP1;ratioP1;P1;durP2;ratioP2;P2;SDS_P1;SDS_P2;PMS_P1;PMS_P2;Temp;Humidity;BMP_temperature;BMP_pressure;BME280_temperature;BME280_humidity;BME280_pressure;Samples;Min_cycle;Max_cycle;Signal;HPM_P1;HPM_P2
2021/08/24 00:00:17;;;;;;;1.75;1.00;;;19.90;99.90;;;;;;5022316;28;20108;-71
2021/08/24 00:02:43;;;;;;;1.73;1.55;;;19.80;99.90;;;;;;5023968;28;20422;-72
2021/08/24 00:05:11;;;;;;;1.65;1.45;;;19.60;99.90;;;;;;5028648;28;20113;-72
2021/08/24 00:07:37;;;;;;;2.03;1.88;;;19.50;99.90;;;;;;5023888;28;20136;-73
2021/08/24 00:10:06;;;;;;;5.05;1.65;;;19.50;99.90;;;;;;5028518;28;20029;-72
2021/08/24 00:12:32;;;;;;;2.10;1.60;;;19.40;99.90;;;;;;5025224;28;20025;-72
2021/08/24 00:14:57;;;;;;;1.40;1.30;;;19.40;99.90;;;;;;5021056;28;20078;-72
2021/08/24 00:17:23;;;;;;;2.38;1.77;;;19.40;99.90;;;;;;5029500;28;20040;-71
2021/08/24 00:19:49;;;;;;;2.95;1.73;;;19.30;99.90;;;;;;5023379;28;20032;-71
2021/08/24 00:22:15;;;;;;;2.75;2.13;;;19.40;99.90;;;;;;5027736;28;20057;-72
2021/08/24 00:24:40;;;;;;;1.55;1.42;;;19.40;99.90;;;;;;5019589;28;20533;-71
2021/08/24 00:27:06;;;;;;;1.65;1.48;;;19.70;99.90;;;;;;5021927;28;20041;-73
2021/08/24 00:29:32;;;;;;;2.03;1.80;;;19.70;99.90;;;;;;5023551;28;20104;-72
2021/08/24 00:31:58;;;;;;;4.32;1.63;;;19.70;99.90;;;;;;5012551;28;20047;-73
2021/08/24 00:34:23;;;;;;;2.13;1.70;;;19.80;99.90;;;;;;5024299;28;20040;-71
2021/08/24 00:36:49;;;;;;;2.38;2.00;;;19.80;99.90;;;;;;5024131;28;20172;-73
2021/08/24 00:39:15;;;;;;;1.85;1.40;;;19.70;99.90;;;;;;5026945;28;20381;-72
2021/08/24 00:41:41;;;;;;;2.38;2.00;;;19.50;99.90;;;;;;5026911;28;20484;-72
2021/08/24 00:44:07;;;;;;;2.35;1.75;;;19.60;99.90;;;;;;5023919;28;20519;-72
2021/08/24 00:46:46;;;;;;;1.85;1.75;;;19.70;99.90;;;;;;5028400;28;20116;-72
2021/08/24 00:49:16;;;;;;;1.45;1.35;;;19.60;99.90;;;;;;5024151;28;20033;-72
2021/08/24 00:51:45;;;;;;;2.25;1.90;;;19.80;99.90;;;;;;5026975;28;20030;-73
2021/08/24 00:54:20;;;;;;;3.58;1.50;;;19.80;99.90;;;;;;5017126;28;20033;-72
2021/08/24 00:56:51;;;;;;;3.85;1.67;;;19.90;99.90;;;;;;5029593;28;20163;-73
2021/08/24 00:59:17;;;;;;;1.63;1.53;;;20.00;99.90;;;;;;5020459;28;20022;-72
2021/08/24 01:01:50;;;;;;;1.98;1.52;;;20.10;99.90;;;;;;5021305;28;20087;-72
2021/08/24 01:04:17;;;;;;;2.03;1.80;;;20.10;99.90;;;;;;5027517;28;20029;-73
2021/08/24 01:06:52;;;;;;;2.15;1.95;;;20.10;99.90;;;;;;5026345;28;20510;-73
2021/08/24 01:09:52;;;;;;;3.50;1.27;;;20.10;99.90;;;;;;5027071;28;20040;-72
2021/08/24 01:12:38;;;;;;;1.45;1.35;;;20.20;99.90;;;;;;5022338;28;20029;-73
2021/08/24 01:15:18;;;;;;;3.10;2.03;;;20.20;99.90;;;;;;5019635;28;20037;-72
2021/08/24 01:18:09;;;;;;;7.20;1.60;;;20.20;99.90;;;;;;5024774;28;20030;-73
2021/08/24 01:20:54;;;;;;;2.57;1.63;;;20.10;99.90;;;;;;5006880;28;20038;-73
2021/08/24 01:23:47;;;;;;;2.20;1.42;;;20.20;99.90;;;;;;5025304;28;20440;-73
2021/08/24 01:26:37;;;;;;;1.50;1.40;;;20.20;99.90;;;;;;5019335;28;20399;-73
2021/08/24 01:29:29;;;;;;;1.92;1.63;;;20.30;99.90;;;;;;5024441;28;20041;-71
2021/08/24 01:32:21;;;;;;;1.58;1.45;;;20.30;99.90;;;;;;5029032;28;20035;-70
2021/08/24 01:34:51;;;;;;;;;;;20.30;99.90;;;;;;5027601;28;20061;-69
2021/08/24 01:37:32;;;;;;;1.63;1.35;;;20.30;99.90;;;;;;5029235;28;19957;-72
2021/08/24 01:40:16;;;;;;;2.97;1.67;;;20.30;99.90;;;;;;5030526;28;20391;-73
2021/08/24 01:42:43;;;;;;;1.80;1.70;;;20.30;99.90;;;;;;5025325;28;20056;-72
2021/08/24 01:45:40;;;;;;;3.25;1.90;;;20.30;99.90;;;;;;5025710;28;20506;-70
2021/08/24 01:48:32;;;;;;;1.90;1.38;;;20.30;99.90;;;;;;5032264;28;20029;-74
2021/08/24 01:51:09;;;;;;;2.08;1.40;;;20.20;99.90;;;;;;5029055;28;20033;-74
2021/08/24 01:53:37;;;;;;;1.63;1.52;;;20.20;99.90;;;;;;5020665;28;20033;-74
2021/08/24 01:56:16;;;;;;;4.05;1.70;;;20.10;99.90;;;;;;5031508;28;20507;-74
2021/08/24 01:58:54;;;;;;;3.75;1.48;;;20.20;99.90;;;;;;5016391;28;20495;-73
2021/08/24 02:01:28;;;;;;;3.10;1.58;;;20.20;99.90;;;;;;5024262;28;20086;-73
2021/08/24 02:03:58;;;;;;;1.95;1.73;;;20.10;99.90;;;;;;5027959;28;20064;-73
2021/08/24 02:06:41;;;;;;;4.70;1.88;;;20.10;99.90;;;;;;5032688;28;20021;-72
2021/08/24 02:09:13;;;;;;;2.35;1.40;;;20.20;99.90;;;;;;5026675;28;20034;-71
2021/08/24 02:11:41;;;;;;;3.40;1.90;;;20.10;99.90;;;;;;5027805;28;20455;-71
2021/08/24 02:14:10;;;;;;;2.28;1.98;;;20.00;99.90;;;;;;5021535;28;20029;-71
2021/08/24 02:16:37;;;;;;;2.90;2.25;;;19.90;99.90;;;;;;5027328;28;20018;-72
2021/08/24 02:19:10;;;;;;;2.33;1.67;;;19.70;99.90;;;;;;5023275;28;20028;-74
2021/08/24 02:21:42;;;;;;;3.67;1.80;;;19.70;99.90;;;;;;5025074;28;20140;-72
2021/08/24 02:24:14;;;;;;;4.45;1.73;;;19.60;99.90;;;;;;5019949;28;20021;-72
2021/08/24 02:26:41;;;;;;;1.83;1.58;;;19.60;99.90;;;;;;5027774;28;20021;-71
2021/08/24 02:29:07;;;;;;;1.42;1.30;;;19.40;99.90;;;;;;5020747;28;20469;-73
2021/08/24 02:31:48;;;;;;;3.05;1.25;;;19.30;99.90;;;;;;5011510;28;20033;-72
2021/08/24 02:34:52;;;;;;;2.10;1.58;;;19.20;99.90;;;;;;5022907;28;20029;-73
2021/08/24 02:37:21;;;;;;;5.40;1.42;;;19.30;99.90;;;;;;5028001;28;20041;-72
2021/08/24 02:39:55;;;;;;;1.52;1.33;;;19.20;99.90;;;;;;5028513;28;20021;-72
2021/08/24 02:42:47;;;;;;;1.98;1.70;;;19.20;99.90;;;;;;5029622;28;20022;-73
2021/08/24 02:45:23;;;;;;;1.55;1.45;;;19.50;99.90;;;;;;5014903;28;20033;-73
2021/08/24 02:47:51;;;;;;;2.13;1.45;;;19.50;99.90;;;;;;5030202;28;20057;-73
2021/08/24 02:50:17;;;;;;;4.25;2.05;;;19.40;99.90;;;;;;5027004;28;20494;-72
2021/08/24 02:52:44;;;;;;;2.40;2.08;;;19.50;99.90;;;;;;5025755;28;20056;-73
2021/08/24 02:55:10;;;;;;;2.28;1.63;;;19.60;99.90;;;;;;5016146;28;20555;-74
2021/08/24 02:57:37;;;;;;;1.30;1.20;;;19.70;99.90;;;;;;5025439;28;20418;-73
2021/08/24 03:00:04;;;;;;;1.77;1.45;;;19.70;99.90;;;;;;5025679;28;20022;-73
2021/08/24 03:02:30;;;;;;;4.03;2.35;;;19.80;99.90;;;;;;5026822;28;20049;-73
2021/08/24 03:04:56;;;;;;;2.40;2.00;;;19.80;99.90;;;;;;5029210;28;20059;-72
2021/08/24 03:07:28;;;;;;;2.20;2.00;;;19.80;99.90;;;;;;5030926;28;20080;-72
2021/08/24 03:09:59;;;;;;;;;;;19.90;99.90;;;;;;5027773;28;20025;-73
2021/08/24 03:12:32;;;;;;;3.33;1.33;;;19.90;99.90;;;;;;5028879;28;20264;-72
2021/08/24 03:15:18;;;;;;;1.55;1.33;;;19.90;99.90;;;;;;5025666;28;20076;-72
2021/08/24 03:18:39;;;;;;;1.38;1.27;;;19.90;99.90;;;;;;5020642;28;20032;-72
2021/08/24 03:21:12;;;;;;;1.60;1.38;;;19.90;99.90;;;;;;5021621;28;20407;-71
2021/08/24 03:23:42;;;;;;;2.67;1.77;;;19.80;99.90;;;;;;5032300;28;20025;-72
2021/08/24 03:26:09;;;;;;;2.55;1.35;;;19.80;99.90;;;;;;5038666;28;20101;-72
2021/08/24 03:28:38;;;;;;;1.35;1.23;;;19.80;99.90;;;;;;5032451;28;20075;-72
2021/08/24 03:31:04;;;;;;;2.13;1.58;;;19.70;99.90;;;;;;5030322;28;20106;-72
2021/08/24 03:33:29;;;;;;;2.72;2.13;;;19.70;99.90;;;;;;5030754;28;20061;-72
2021/08/24 03:35:55;;;;;;;3.90;1.70;;;19.60;99.90;;;;;;5018391;28;20028;-72
2021/08/24 03:38:21;;;;;;;1.38;1.27;;;19.40;99.90;;;;;;5023198;28;20021;-72
2021/08/24 03:40:47;;;;;;;2.50;1.70;;;19.40;99.90;;;;;;5029837;28;20029;-72
2021/08/24 03:43:12;;;;;;;1.92;1.60;;;19.40;99.90;;;;;;5027707;28;20044;-72
2021/08/24 03:45:38;;;;;;;1.98;1.30;;;19.60;99.90;;;;;;5026777;28;20127;-73
2021/08/24 03:48:04;;;;;;;4.13;1.52;;;19.60;99.90;;;;;;5025372;28;20387;-71
2021/08/24 03:50:32;;;;;;;2.00;1.42;;;19.60;99.90;;;;;;5028068;28;20021;-73
2021/08/24 03:52:57;;;;;;;2.38;1.38;;;19.70;99.90;;;;;;5030386;28;20025;-69
2021/08/24 03:55:23;;;;;;;2.10;1.90;;;19.60;99.90;;;;;;5025525;28;20048;-72
2021/08/24 03:57:58;;;;;;;4.55;2.83;;;19.60;99.90;;;;;;5025609;28;20507;-71
2021/08/24 04:00:23;;;;;;;2.38;1.42;;;19.70;99.90;;;;;;5021749;28;20037;-71
2021/08/24 04:02:49;;;;;;;3.55;1.17;;;19.60;99.90;;;;;;5022204;28;20151;-72
2021/08/24 04:05:15;;;;;;;4.05;1.60;;;19.60;99.90;;;;;;5025821;28;20454;-71
2021/08/24 04:07:42;;;;;;;1.88;1.73;;;19.70;99.90;;;;;;5030305;28;20034;-71
2021/08/24 04:10:08;;;;;;;2.47;1.60;;;19.70;99.90;;;;;;5020874;28;20455;-71
2021/08/24 04:12:34;;;;;;;4.45;2.22;;;19.60;99.90;;;;;;5031388;28;20442;-71
2021/08/24 04:15:00;;;;;;;2.30;2.08;;;19.50;99.90;;;;;;5036417;28;20132;-73
2021/08/24 04:17:26;;;;;;;4.35;1.30;;;19.50;99.90;;;;;;5028826;28;20499;-72
2021/08/24 04:19:52;;;;;;;1.88;1.52;;;19.50;99.90;;;;;;5022551;28;20092;-72
2021/08/24 04:22:21;;;;;;;1.80;1.70;;;19.50;99.90;;;;;;5026092;28;20086;-72
2021/08/24 04:24:47;;;;;;;1.75;1.63;;;19.50;99.90;;;;;;5029025;28;20014;-72
2021/08/24 04:27:13;;;;;;;2.60;1.48;;;19.50;99.90;;;;;;5024871;28;20164;-73
2021/08/24 04:29:39;;;;;;;2.13;1.55;;;19.50;99.90;;;;;;5026549;28;20026;-71
2021/08/24 04:32:06;;;;;;;5.43;1.63;;;19.50;99.90;;;;;;5016594;28;20428;-73
2021/08/24 04:34:32;;;;;;;2.60;1.95;;;19.50;99.90;;;;;;5028490;28;20035;-72
2021/08/24 04:36:58;;;;;;;1.95;1.40;;;19.60;99.90;;;;;;5023398;28;20036;-72
2021/08/24 04:39:24;;;;;;;2.20;1.88;;;19.60;99.90;;;;;;5029256;28;20021;-71
2021/08/24 04:41:50;;;;;;;2.33;1.75;;;19.60;99.90;;;;;;5027096;28;20021;-73
2021/08/24 04:44:15;;;;;;;3.63;1.75;;;19.70;99.90;;;;;;5012597;28;20026;-71
2021/08/24 04:46:41;;;;;;;2.25;1.90;;;19.60;99.90;;;;;;5015499;28;20059;-71
2021/08/24 04:49:07;;;;;;;1.75;1.42;;;19.70;99.90;;;;;;5024814;28;20030;-71
2021/08/24 04:51:33;;;;;;;3.10;1.80;;;19.80;99.90;;;;;;5027424;28;20530;-71
2021/08/24 04:53:58;;;;;;;3.45;2.05;;;19.80;99.90;;;;;;5028223;28;20185;-71
2021/08/24 04:56:24;;;;;;;2.15;1.83;;;19.80;99.90;;;;;;5023850;28;20256;-71
2021/08/24 04:58:50;;;;;;;2.25;1.77;;;19.70;99.90;;;;;;5028340;28;20029;-72
2021/08/24 05:01:16;;;;;;;1.60;1.50;;;19.70;99.90;;;;;;5028880;28;20033;-71
2021/08/24 05:03:41;;;;;;;2.60;1.60;;;19.70;99.90;;;;;;5031863;28;20029;-72
2021/08/24 05:06:07;;;;;;;3.63;1.80;;;19.70;99.90;;;;;;5033196;28;20044;-71
2021/08/24 05:08:33;;;;;;;4.13;2.17;;;19.80;99.90;;;;;;5031687;28;20057;-72
2021/08/24 05:10:59;;;;;;;2.63;2.10;;;19.90;99.90;;;;;;5028734;28;20026;-72
2021/08/24 05:13:24;;;;;;;4.15;1.85;;;19.90;99.90;;;;;;5018916;28;20049;-72
2021/08/24 05:15:50;;;;;;;3.65;1.70;;;19.90;99.90;;;;;;5032863;28;20029;-73
2021/08/24 05:18:16;;;;;;;3.28;2.30;;;19.90;99.90;;;;;;5031990;28;20025;-71
2021/08/24 05:20:42;;;;;;;3.88;2.10;;;19.90;99.90;;;;;;5025538;28;20033;-73
2021/08/24 05:23:08;;;;;;;5.63;2.17;;;20.10;99.90;;;;;;5033608;28;20484;-72
2021/08/24 05:25:34;;;;;;;5.63;2.85;;;20.20;99.90;;;;;;5033818;28;20063;-72
2021/08/24 05:28:01;;;;;;;3.60;1.98;;;20.20;99.90;;;;;;5027021;28;20022;-72
2021/08/24 05:30:27;;;;;;;1.88;1.67;;;20.40;99.90;;;;;;5030033;28;20032;-71
2021/08/24 05:32:54;;;;;;;2.05;1.85;;;20.50;99.90;;;;;;5030896;28;20026;-71
2021/08/24 05:35:21;;;;;;;2.00;1.67;;;20.50;99.90;;;;;;5026758;28;20459;-71
2021/08/24 05:37:48;;;;;;;3.92;2.05;;;20.50;99.90;;;;;;5025294;28;20447;-72
2021/08/24 05:40:14;;;;;;;5.65;2.42;;;20.50;99.90;;;;;;5032814;28;20053;-73
2021/08/24 05:42:40;;;;;;;1.60;1.50;;;20.60;99.90;;;;;;5020609;28;20549;-70
2021/08/24 05:45:10;;;;;;;2.40;1.90;;;20.60;99.90;;;;;;5023721;28;20846;-70
2021/08/24 05:47:36;;;;;;;5.47;2.17;;;20.60;99.90;;;;;;5030068;28;20187;-69
2021/08/24 05:50:02;;;;;;;2.40;2.10;;;20.60;99.90;;;;;;5022445;28;20123;-69
2021/08/24 05:52:28;;;;;;;4.20;2.25;;;20.70;99.90;;;;;;5027189;28;20120;-69
2021/08/24 05:54:54;;;;;;;1.77;1.67;;;20.70;99.90;;;;;;5031606;28;20124;-69
2021/08/24 05:57:20;;;;;;;1.50;1.40;;;20.70;99.90;;;;;;5028370;28;20022;-68
2021/08/24 05:59:46;;;;;;;2.00;1.77;;;20.60;99.90;;;;;;5023372;28;20108;-69
2021/08/24 06:02:12;;;;;;;1.95;1.65;;;20.70;99.90;;;;;;5017701;28;20032;-69
2021/08/24 06:04:38;;;;;;;2.58;1.42;;;20.70;99.90;;;;;;5030786;28;20025;-68
2021/08/24 06:07:05;;;;;;;2.50;1.52;;;20.80;99.90;;;;;;5029174;28;20025;-68
2021/08/24 06:09:31;;;;;;;2.20;1.83;;;20.80;99.90;;;;;;5027330;28;20128;-68
2021/08/24 06:11:57;;;;;;;3.00;1.80;;;20.90;99.90;;;;;;5028781;28;20026;-69
2021/08/24 06:14:24;;;;;;;1.70;1.60;;;21.10;99.90;;;;;;5025328;28;20030;-66
2021/08/24 06:17:01;;;;;;;3.30;1.85;;;21.10;99.90;;;;;;5034542;28;20017;-68
2021/08/24 06:19:39;;;;;;;2.17;1.63;;;21.20;99.90;;;;;;5026712;28;20105;-67
2021/08/24 06:22:17;;;;;;;3.60;1.90;;;21.20;99.90;;;;;;5029905;28;20021;-68
2021/08/24 06:24:45;;;;;;;3.88;1.80;;;21.20;99.90;;;;;;5020532;28;20032;-69
2021/08/24 06:27:10;;;;;;;3.15;1.55;;;21.20;99.90;;;;;;5028462;28;20112;-67
2021/08/24 06:29:36;;;;;;;3.53;1.88;;;21.20;99.90;;;;;;5021544;28;20503;-68
2021/08/24 06:32:05;;;;;;;1.60;1.42;;;21.30;99.90;;;;;;5015442;28;20413;-67
2021/08/24 06:34:33;;;;;;;4.22;1.65;;;21.30;99.90;;;;;;5014100;28;20029;-67
2021/08/24 06:36:59;;;;;;;4.53;1.27;;;21.40;99.90;;;;;;5026275;28;20034;-67
2021/08/24 06:39:24;;;;;;;2.50;1.60;;;21.50;99.90;;;;;;5027369;28;20490;-67
2021/08/24 06:41:51;;;;;;;3.15;1.45;;;21.60;99.90;;;;;;5024227;28;20515;-68
2021/08/24 06:44:17;;;;;;;3.65;1.52;;;21.70;99.90;;;;;;5029923;28;20030;-67
2021/08/24 06:46:43;;;;;;;5.82;1.75;;;21.80;99.90;;;;;;5029098;28;20069;-67
2021/08/24 06:49:09;;;;;;;3.78;2.45;;;21.90;99.90;;;;;;5023651;28;20057;-67
2021/08/24 06:51:36;;;;;;;4.07;1.98;;;21.90;99.90;;;;;;5025485;28;20022;-67
2021/08/24 06:54:02;;;;;;;4.07;1.58;;;22.00;99.90;;;;;;5026040;28;20064;-67
2021/08/24 06:56:29;;;;;;;3.30;1.50;;;22.00;99.90;;;;;;5031517;28;20025;-67
2021/08/24 06:58:55;;;;;;;2.90;1.52;;;22.10;99.90;;;;;;5024826;28;20357;-67
2021/08/24 07:01:24;;;;;;;2.38;1.60;;;22.30;99.90;;;;;;5025806;28;20379;-67
2021/08/24 07:03:51;;;;;;;2.45;1.63;;;22.40;99.90;;;;;;5029512;28;20465;-68
2021/08/24 07:06:17;;;;;;;6.30;1.73;;;22.60;99.90;;;;;;5029393;28;20037;-66
2021/08/24 07:08:43;;;;;;;1.98;1.55;;;22.80;99.90;;;;;;5025921;28;20388;-70
2021/08/24 07:11:10;;;;;;;2.30;2.10;;;22.90;99.90;;;;;;5023919;28;20033;-70
2021/08/24 07:13:36;;;;;;;1.95;1.73;;;23.00;99.90;;;;;;5028109;28;20021;-68
2021/08/24 07:16:05;;;;;;;2.03;1.70;;;23.00;99.90;;;;;;5028615;28;20033;-71
2021/08/24 07:18:31;;;;;;;5.53;1.75;;;23.10;99.90;;;;;;5026385;28;20021;-71
2021/08/24 07:20:57;;;;;;;3.67;1.35;;;23.10;99.90;;;;;;5027818;28;20029;-69
2021/08/24 07:23:23;;;;;;;1.00;1.00;;;23.30;99.90;;;;;;5021671;28;20273;-69
2021/08/24 07:25:49;;;;;;;2.03;1.33;;;23.30;99.90;;;;;;5028025;28;20438;-68
2021/08/24 07:28:15;;;;;;;4.50;1.38;;;23.40;99.90;;;;;;5027347;28;20022;-69
2021/08/24 07:30:48;;;;;;;1.80;1.67;;;23.40;99.90;;;;;;5012714;28;20033;-70
2021/08/24 07:33:14;;;;;;;1.63;1.45;;;23.50;99.90;;;;;;5025382;28;20033;-69
2021/08/24 07:35:40;;;;;;;4.40;1.97;;;23.50;99.90;;;;;;5030774;28;20030;-69
2021/08/24 07:38:05;;;;;;;2.22;1.50;;;23.50;99.90;;;;;;5024962;28;20037;-69
2021/08/24 07:40:32;;;;;;;1.55;1.45;;;23.70;99.90;;;;;;5029401;28;20029;-69
2021/08/24 07:42:58;;;;;;;1.25;1.15;;;23.70;99.90;;;;;;5019345;28;20029;-68
2021/08/24 07:45:23;;;;;;;1.20;1.10;;;23.90;99.90;;;;;;5019039;28;20412;-69
2021/08/24 07:47:49;;;;;;;2.08;1.73;;;24.10;99.90;;;;;;5021606;28;20419;-67
2021/08/24 07:50:15;;;;;;;2.60;1.73;;;24.20;99.90;;;;;;5026849;28;20360;-68
2021/08/24 07:52:41;;;;;;;1.35;1.25;;;24.00;99.90;;;;;;5028778;28;20032;-71
2021/08/24 07:55:07;;;;;;;1.55;1.35;;;24.10;99.90;;;;;;5023178;28;20395;-67
2021/08/24 07:57:33;;;;;;;4.93;1.17;;;24.20;99.90;;;;;;5014674;28;20139;-68
2021/08/24 07:59:59;;;;;;;0.75;0.75;;;24.40;99.90;;;;;;5016130;28;20041;-68
2021/08/24 08:02:25;;;;;;;1.90;1.38;;;24.50;99.90;;;;;;5021425;28;20514;-68
2021/08/24 08:04:51;;;;;;;1.33;1.10;;;24.50;99.90;;;;;;5030404;28;20100;-68
2021/08/24 08:07:17;;;;;;;1.08;0.98;;;24.60;99.90;;;;;;5028744;28;20029;-68
2021/08/24 08:09:43;;;;;;;1.50;1.10;;;24.60;99.90;;;;;;5023511;28;20029;-68
2021/08/24 08:12:10;;;;;;;2.22;1.77;;;24.60;99.90;;;;;;5023736;28;20484;-68
2021/08/24 08:14:37;;;;;;;1.83;1.20;;;24.70;99.90;;;;;;5024268;28;20029;-68
2021/08/24 08:17:03;;;;;;;1.40;1.30;;;24.80;99.90;;;;;;5022186;28;20034;-67
2021/08/24 08:19:28;;;;;;;1.08;0.98;;;24.80;99.90;;;;;;5026555;28;20081;-68
2021/08/24 08:21:54;;;;;;;0.65;0.65;;;24.90;99.90;;;;;;5024041;28;20483;-68
2021/08/24 08:24:20;;;;;;;1.65;1.35;;;25.00;99.90;;;;;;5018693;28;20030;-67
2021/08/24 08:26:46;;;;;;;1.88;1.77;;;24.90;99.90;;;;;;5029592;28;20025;-68
2021/08/24 08:29:13;;;;;;;0.68;0.68;;;25.00;99.90;;;;;;5022706;28;20541;-68
2021/08/24 08:31:42;;;;;;;4.53;0.85;;;25.00;99.90;;;;;;5029479;28;20040;-68
2021/08/24 08:34:10;;;;;;;5.07;1.48;;;25.00;99.90;;;;;;5009538;28;20030;-69
2021/08/24 08:36:37;;;;;;;1.17;1.02;;;25.20;99.90;;;;;;5034843;28;20025;-70
2021/08/24 08:39:03;;;;;;;1.33;0.90;;;25.30;99.90;;;;;;5028857;28;20104;-69
2021/08/24 08:41:35;;;;;;;2.33;1.17;;;25.30;99.90;;;;;;5032425;28;20662;-70
2021/08/24 08:44:03;;;;;;;;;;;25.40;99.90;;;;;;5033973;28;20036;-68
2021/08/24 08:46:52;;;;;;;1.08;0.98;;;25.30;99.90;;;;;;5032014;28;19921;-67
2021/08/24 08:49:35;;;;;;;1.48;1.20;;;25.40;99.90;;;;;;5018277;28;20084;-68
2021/08/24 08:52:16;;;;;;;0.60;0.60;;;25.50;99.90;;;;;;5030230;28;20029;-69
2021/08/24 08:55:02;;;;;;;3.55;1.33;;;25.50;99.90;;;;;;5028829;28;20033;-68
2021/08/24 08:57:47;;;;;;;2.28;0.93;;;25.60;99.90;;;;;;5024837;28;20049;-69
2021/08/24 09:00:21;;;;;;;1.20;1.10;;;25.70;99.90;;;;;;5023905;28;20108;-68
2021/08/24 09:02:55;;;;;;;1.00;0.95;;;25.70;99.90;;;;;;5032627;28;20499;-69
2021/08/24 09:05:24;;;;;;;1.70;1.08;;;25.80;99.90;;;;;;5035106;28;20036;-68
2021/08/24 09:07:57;;;;;;;2.03;1.10;;;25.80;99.90;;;;;;5026883;28;20084;-68
2021/08/24 09:10:35;;;;;;;1.50;0.93;;;25.80;99.90;;;;;;5031984;28;20167;-72
2021/08/24 09:13:14;;;;;;;1.30;0.52;;;25.80;99.90;;;;;;5040041;28;20113;-69
2021/08/24 09:15:42;;;;;;;1.00;0.85;;;25.80;99.90;;;;;;5015168;28;20034;-69
2021/08/24 09:18:15;;;;;;;3.60;0.90;;;25.80;99.90;;;;;;5023709;28;20025;-68
2021/08/24 09:21:00;;;;;;;0.98;0.77;;;25.80;99.90;;;;;;5023311;28;20186;-71
2021/08/24 09:23:27;;;;;;;0.77;0.77;;;25.70;99.90;;;;;;5023431;28;20017;-68
2021/08/24 09:26:14;;;;;;;1.02;0.90;;;25.70;99.90;;;;;;5024105;28;20022;-67
2021/08/24 09:28:41;;;;;;;2.67;1.10;;;25.80;99.90;;;;;;5025644;28;20076;-67
2021/08/24 09:31:20;;;;;;;1.70;1.02;;;25.90;99.90;;;;;;5026943;28;20036;-67
2021/08/24 09:33:48;;;;;;;0.98;0.80;;;26.00;99.90;;;;;;5007976;28;20117;-66
2021/08/24 09:36:14;;;;;;;2.17;0.98;;;26.00;99.90;;;;;;5022247;28;20025;-66
2021/08/24 09:38:57;;;;;;;4.25;0.90;;;26.10;99.90;;;;;;5020677;28;20029;-67
2021/08/24 09:41:33;;;;;;;1.65;1.20;;;26.20;99.90;;;;;;5023715;28;20025;-68
2021/08/24 09:44:20;;;;;;;2.97;0.93;;;26.40;99.90;;;;;;5025571;28;20049;-68
2021/08/24 09:46:46;;;;;;;0.85;0.73;;;26.20;99.90;;;;;;5023707;28;20029;-66
2021/08/24 09:49:21;;;;;;;1.02;0.75;;;26.20;99.90;;;;;;5014103;28;20091;-67
2021/08/24 09:51:59;;;;;;;1.15;0.70;;;26.10;99.90;;;;;;5012680;28;20033;-66
2021/08/24 09:54:33;;;;;;;6.40;2.90;;;26.20;99.90;;;;;;5013992;28;20032;-69
2021/08/24 09:57:10;;;;;;;1.13;1.05;;;26.20;99.90;;;;;;5027687;28;20064;-69
2021/08/24 09:59:41;;;;;;;1.10;1.00;;;26.30;99.90;;;;;;5013177;28;20388;-67
2021/08/24 10:02:39;;;;;;;1.10;1.00;;;26.30;99.90;;;;;;5018005;28;20048;-70
2021/08/24 10:05:33;;;;;;;0.75;0.60;;;26.40;99.90;;;;;;5014888;28;20026;-67
2021/08/24 10:08:01;;;;;;;1.52;1.42;;;26.40;99.90;;;;;;5024686;28;20038;-68
2021/08/24 10:10:36;;;;;;;4.78;1.27;;;26.60;99.90;;;;;;5030929;28;20377;-69
2021/08/24 10:13:32;;;;;;;2.78;0.88;;;26.70;99.90;;;;;;5032746;28;20087;-69
2021/08/24 10:16:23;;;;;;;3.67;0.90;;;26.70;99.90;;;;;;5030504;28;20121;-69
2021/08/24 10:19:04;;;;;;;3.33;2.33;;;26.80;99.90;;;;;;5012824;28;20022;-68
2021/08/24 10:21:38;;;;;;;0.52;0.52;;;26.80;99.90;;;;;;5013853;28;20041;-67
2021/08/24 10:24:07;;;;;;;4.63;0.82;;;26.90;99.90;;;;;;5011361;28;20076;-68
2021/08/24 10:26:35;;;;;;;1.23;0.85;;;27.00;99.90;;;;;;5013390;28;20407;-67
2021/08/24 10:29:07;;;;;;;0.63;0.63;;;27.20;99.90;;;;;;5030631;28;20057;-68
2021/08/24 10:31:36;;;;;;;0.88;0.52;;;27.00;99.90;;;;;;5030855;28;20066;-68
2021/08/24 10:34:25;;;;;;;0.80;0.80;;;26.90;99.90;;;;;;5032188;28;20025;-68
2021/08/24 10:36:52;;;;;;;4.68;0.82;;;26.70;99.90;;;;;;5030668;28;20033;-68
2021/08/24 10:39:24;;;;;;;0.60;0.60;;;26.80;99.90;;;;;;5030173;28;20021;-68
2021/08/24 10:42:09;;;;;;;1.20;0.63;;;26.90;99.90;;;;;;5032095;28;20017;-69
2021/08/24 10:44:59;;;;;;;0.65;0.65;;;26.80;99.90;;;;;;5030756;28;20336;-68
2021/08/24 10:47:56;;;;;;;1.48;0.88;;;26.80;99.90;;;;;;5028580;28;20023;-69
2021/08/24 10:50:41;;;;;;;0.50;0.50;;;27.00;99.90;;;;;;5022135;28;20049;-68
2021/08/24 10:53:43;;;;;;;1.73;0.63;;;27.20;99.90;;;;;;5024550;28;20488;-68
2021/08/24 10:56:18;;;;;;;0.60;0.52;;;27.20;99.90;;;;;;5011759;28;20492;-70
2021/08/24 10:59:09;;;;;;;0.98;0.40;;;27.20;99.90;;;;;;5011960;28;20061;-68
2021/08/24 11:01:45;;;;;;;1.00;0.52;;;26.90;99.90;;;;;;5031471;28;20079;-68
2021/08/24 11:04:41;;;;;;;0.65;0.60;;;26.90;99.90;;;;;;5028760;28;20357;-68
2021/08/24 11:07:39;;;;;;;0.55;0.50;;;27.00;99.90;;;;;;5027129;28;20094;-68
2021/08/24 11:10:29;;;;;;;0.40;0.40;;;27.20;99.90;;;;;;5002213;28;20042;-68
2021/08/24 11:13:22;;;;;;;0.93;0.90;;;27.20;99.90;;;;;;5010181;28;20496;-68
2021/08/24 11:15:55;;;;;;;2.92;0.52;;;27.20;99.90;;;;;;5009887;28;20079;-68
2021/08/24 11:18:30;;;;;;;0.75;0.73;;;27.30;99.90;;;;;;5011136;28;20338;-69
2021/08/24 11:21:30;;;;;;;0.98;0.40;;;27.30;99.90;;;;;;5011142;28;20029;-69
2021/08/24 11:24:27;;;;;;;1.50;1.30;;;27.40;99.90;;;;;;5019876;28;20388;-68
2021/08/24 11:27:13;;;;;;;1.13;0.77;;;27.40;99.90;;;;;;5029665;28;20139;-68
2021/08/24 11:29:47;;;;;;;1.65;0.70;;;27.50;99.90;;;;;;5030046;28;20060;-68
2021/08/24 11:32:22;;;;;;;0.98;0.80;;;27.40;99.90;;;;;;5028257;28;20025;-68
2021/08/24 11:35:14;;;;;;;1.77;1.25;;;27.40;99.90;;;;;;5011015;28;20034;-68
2021/08/24 11:37:51;;;;;;;0.68;0.55;;;27.50;99.90;;;;;;5020837;28;20040;-70
2021/08/24 11:40:38;;;;;;;1.33;0.95;;;27.60;99.90;;;;;;5030722;28;20032;-69
2021/08/24 11:43:15;;;;;;;11.52;1.90;;;27.60;99.90;;;;;;5031522;28;20387;-70
2021/08/24 11:45:53;;;;;;;1.38;0.77;;;27.70;99.90;;;;;;5031234;28;20026;-68
2021/08/24 11:48:27;;;;;;;1.85;0.80;;;27.90;99.90;;;;;;5016248;28;20100;-69
2021/08/24 11:51:09;;;;;;;1.45;0.95;;;27.80;99.90;;;;;;5012060;28;20030;-69
2021/08/24 11:53:50;;;;;;;1.42;1.10;;;27.60;99.90;;;;;;5010622;28;20516;-68
2021/08/24 11:56:31;;;;;;;0.73;0.73;;;27.70;99.90;;;;;;5011090;28;20136;-69
2021/08/24 11:59:01;;;;;;;2.50;0.80;;;27.70;99.90;;;;;;5009512;28;20057;-68
2021/08/24 12:01:32;;;;;;;1.92;1.23;;;27.60;99.90;;;;;;5012456;28;20511;-70
2021/08/24 12:04:01;;;;;;;3.38;0.90;;;27.70;99.90;;;;;;5012878;28;20026;-69
2021/08/24 12:06:40;;;;;;;2.05;1.10;;;27.90;99.90;;;;;;5014101;28;20165;-68
2021/08/24 12:09:13;;;;;;;2.95;1.40;;;27.80;99.90;;;;;;5021593;28;20468;-67
2021/08/24 12:11:38;;;;;;;1.42;1.10;;;27.80;99.90;;;;;;5019956;28;20030;-68
2021/08/24 12:14:30;;;;;;;2.22;1.08;;;27.70;99.90;;;;;;5019660;28;20018;-68
2021/08/24 12:17:23;;;;;;;0.50;0.50;;;27.70;99.90;;;;;;5020423;28;20030;-69
2021/08/24 12:19:54;;;;;;;1.17;0.70;;;27.80;99.90;;;;;;5020366;28;20080;-68
2021/08/24 12:22:35;;;;;;;0.73;0.73;;;27.80;99.90;;;;;;5020915;28;20033;-67
2021/08/24 12:25:14;;;;;;;0.93;0.77;;;27.80;99.90;;;;;;5019936;28;20014;-67
2021/08/24 12:27:52;;;;;;;1.55;1.15;;;27.90;99.90;;;;;;5019365;28;20033;-68
2021/08/24 12:30:23;;;;;;;0.80;0.80;;;28.10;99.90;;;;;;5019469;28;20319;-68
2021/08/24 12:32:49;;;;;;;0.55;0.52;;;28.10;99.90;;;;;;5020759;28;20411;-69
2021/08/24 12:35:40;;;;;;;1.00;0.88;;;27.80;99.90;;;;;;5019024;28;20025;-68
2021/08/24 12:38:07;;;;;;;0.73;0.60;;;27.50;99.90;;;;;;5020596;28;20079;-69
2021/08/24 12:40:38;;;;;;;1.08;1.00;;;27.60;99.90;;;;;;5018409;28;20072;-68
2021/08/24 12:43:19;;;;;;;0.93;0.80;;;27.70;99.90;;;;;;5017303;28;20026;-68
2021/08/24 12:45:46;;;;;;;1.58;0.82;;;27.90;99.90;;;;;;5018956;28;20049;-69
2021/08/24 12:48:12;;;;;;;1.30;1.20;;;28.00;99.90;;;;;;5018552;28;20300;-69
2021/08/24 12:50:37;;;;;;;3.65;1.38;;;28.20;99.90;;;;;;5023172;28;20568;-69
2021/08/24 12:53:28;;;;;;;1.05;0.82;;;28.20;99.90;;;;;;5027120;28;20030;-69
2021/08/24 12:55:59;;;;;;;0.52;0.38;;;28.10;99.90;;;;;;5022306;28;20030;-68
2021/08/24 12:58:28;;;;;;;2.53;0.70;;;27.80;99.90;;;;;;5028814;28;20050;-69
2021/08/24 13:01:23;;;;;;;0.93;0.88;;;27.70;99.90;;;;;;5028265;28;20109;-68
2021/08/24 13:04:12;;;;;;;1.23;0.68;;;27.70;99.90;;;;;;5026725;28;20522;-68
2021/08/24 13:06:41;;;;;;;5.07;1.20;;;28.00;99.90;;;;;;5035297;28;20045;-70
2021/08/24 13:09:18;;;;;;;3.42;1.20;;;28.00;99.90;;;;;;5024822;28;20417;-69
2021/08/24 13:12:16;;;;;;;0.80;0.80;;;28.20;99.90;;;;;;5031872;28;20396;-71
2021/08/24 13:14:49;;;;;;;1.52;0.70;;;28.20;99.90;;;;;;5018092;28;20041;-71